sensor_id;sensor_type;location;lat;lon;timestamp;P1;durP1;ratioP1;P2;durP2;ratioP2
50483;SDS011;36409;52.168;20.878;2023-07-20T00:02:23;5.27;;;2.50;;
50483;SDS011;36409;52.168;20.878;2023-07-20T00:04:57;4.12;;;2.25;;
50483;SDS011;36409;52.168;20.878;2023-07-20T00:07:29;5.50;;;2.40;;
50483;SDS011;36409;52.168;20.878;2023-07-20T00:10:02;6.67;;;2.53;;
50483;SDS011;36409;52.168;20.878;2023-07-20T00:12:37;5.00;;;2.63;;
50483;SDS011;36409;52.168;20.878;2023-07-20T00:15:10;5.20;;;2.65;;
50483;SDS011;36409;52.168;20.878;2023-07-20T00:17:43;8.17;;;2.70;;
50483;SDS011;36409;52.168;20.878;2023-07-20T00:20:15;6.87;;;2.73;;
50483;SDS011;36409;52.168;20.878;2023-07-20T00:22:48;6.37;;;2.90;;
50483;SDS011;36409;52.168;20.878;2023-07-20T00:27:53;5.80;;;2.63;;
50483;SDS011;36409;52.168;20.878;2023-07-20T00:30:25;5.80;;;2.73;;
50483;SDS011;36409;52.168;20.878;2023-07-20T00:32:58;8.93;;;2.73;;
50483;SDS011;36409;52.168;20.878;2023-07-20T00:35:40;5.97;;;2.70;;
50483;SDS011;36409;52.168;20.878;2023-07-20T00:38:12;4.10;;;2.27;;
50483;SDS011;36409;52.168;20.878;2023-07-20T00:40:47;6.00;;;2.80;;
50483;SDS011;36409;52.168;20.878;2023-07-20T00:43:22;5.47;;;2.60;;
50483;SDS011;36409;52.168;20.878;2023-07-20T00:45:55;6.27;;;2.47;;
50483;SDS011;36409;52.168;20.878;2023-07-20T00:48:29;5.47;;;2.70;;
50483;SDS011;36409;52.168;20.878;2023-07-20T00:51:02;9.40;;;3.03;;
50483;SDS011;36409;52.168;20.878;2023-07-20T00:53:35;5.20;;;2.70;;
50483;SDS011;36409;52.168;20.878;2023-07-20T00:56:15;4.77;;;2.43;;
50483;SDS011;36409;52.168;20.878;2023-07-20T00:58:49;6.57;;;2.70;;
50483;SDS011;36409;52.168;20.878;2023-07-20T01:01:23;5.42;;;2.47;;
50483;SDS011;36409;52.168;20.878;2023-07-20T01:03:55;6.70;;;2.97;;
50483;SDS011;36409;52.168;20.878;2023-07-20T01:06:32;5.53;;;2.40;;
50483;SDS011;36409;52.168;20.878;2023-07-20T01:09:14;6.92;;;3.00;;
50483;SDS011;36409;52.168;20.878;2023-07-20T01:11:52;5.87;;;2.33;;
50483;SDS011;36409;52.168;20.878;2023-07-20T01:14:30;4.83;;;2.37;;
50483;SDS011;36409;52.168;20.878;2023-07-20T01:17:05;7.03;;;2.70;;
50483;SDS011;36409;52.168;20.878;2023-07-20T01:19:38;7.07;;;2.50;;
50483;SDS011;36409;52.168;20.878;2023-07-20T01:22:13;6.20;;;2.50;;
50483;SDS011;36409;52.168;20.878;2023-07-20T01:25:03;8.23;;;2.97;;
50483;SDS011;36409;52.168;20.878;2023-07-20T01:34:00;6.63;;;2.80;;
50483;SDS011;36409;52.168;20.878;2023-07-20T01:36:36;8.50;;;2.87;;
50483;SDS011;36409;52.168;20.878;2023-07-20T01:39:11;7.13;;;2.90;;
50483;SDS011;36409;52.168;20.878;2023-07-20T01:41:44;8.27;;;3.10;;
50483;SDS011;36409;52.168;20.878;2023-07-20T01:44:18;7.43;;;2.60;;
50483;SDS011;36409;52.168;20.878;2023-07-20T01:46:50;7.10;;;3.07;;
50483;SDS011;36409;52.168;20.878;2023-07-20T01:49:26;5.60;;;2.80;;
50483;SDS011;36409;52.168;20.878;2023-07-20T01:51:58;6.77;;;3.07;;
50483;SDS011;36409;52.168;20.878;2023-07-20T01:54:32;8.65;;;3.02;;
50483;SDS011;36409;52.168;20.878;2023-07-20T01:57:06;5.37;;;2.90;;
50483;SDS011;36409;52.168;20.878;2023-07-20T01:59:39;6.90;;;2.83;;
50483;SDS011;36409;52.168;20.878;2023-07-20T02:02:11;6.55;;;3.30;;
50483;SDS011;36409;52.168;20.878;2023-07-20T02:04:47;7.60;;;3.20;;
50483;SDS011;36409;52.168;20.878;2023-07-20T02:07:20;7.10;;;3.33;;
50483;SDS011;36409;52.168;20.878;2023-07-20T02:09:53;9.33;;;3.33;;
50483;SDS011;36409;52.168;20.878;2023-07-20T02:12:25;6.73;;;3.50;;
50483;SDS011;36409;52.168;20.878;2023-07-20T02:14:59;6.90;;;3.03;;
50483;SDS011;36409;52.168;20.878;2023-07-20T02:17:33;8.73;;;3.47;;
50483;SDS011;36409;52.168;20.878;2023-07-20T02:20:07;12.13;;;3.60;;
50483;SDS011;36409;52.168;20.878;2023-07-20T02:22:44;6.73;;;3.10;;
50483;SDS011;36409;52.168;20.878;2023-07-20T02:25:17;8.27;;;3.27;;
50483;SDS011;36409;52.168;20.878;2023-07-20T02:27:49;7.87;;;3.37;;
50483;SDS011;36409;52.168;20.878;2023-07-20T02:30:24;11.55;;;3.55;;
50483;SDS011;36409;52.168;20.878;2023-07-20T02:32:57;11.33;;;3.67;;
50483;SDS011;36409;52.168;20.878;2023-07-20T02:35:34;9.10;;;4.20;;
50483;SDS011;36409;52.168;20.878;2023-07-20T02:38:07;6.97;;;3.60;;
50483;SDS011;36409;52.168;20.878;2023-07-20T02:40:39;8.73;;;3.53;;
50483;SDS011;36409;52.168;20.878;2023-07-20T02:43:12;8.17;;;3.50;;
50483;SDS011;36409;52.168;20.878;2023-07-20T02:45:49;9.47;;;4.23;;
50483;SDS011;36409;52.168;20.878;2023-07-20T02:48:23;5.50;;;3.20;;
50483;SDS011;36409;52.168;20.878;2023-07-20T02:50:56;7.27;;;3.13;;
50483;SDS011;36409;52.168;20.878;2023-07-20T02:53:29;6.47;;;3.60;;
50483;SDS011;36409;52.168;20.878;2023-07-20T02:56:02;9.50;;;3.60;;
50483;SDS011;36409;52.168;20.878;2023-07-20T02:58:39;9.20;;;3.73;;
50483;SDS011;36409;52.168;20.878;2023-07-20T03:01:15;6.97;;;3.37;;
50483;SDS011;36409;52.168;20.878;2023-07-20T03:03:52;6.90;;;3.30;;
50483;SDS011;36409;52.168;20.878;2023-07-20T03:06:25;7.00;;;3.00;;
50483;SDS011;36409;52.168;20.878;2023-07-20T03:08:58;9.17;;;3.63;;
50483;SDS011;36409;52.168;20.878;2023-07-20T03:11:33;6.93;;;3.40;;
50483;SDS011;36409;52.168;20.878;2023-07-20T03:14:06;8.27;;;3.23;;
50483;SDS011;36409;52.168;20.878;2023-07-20T03:16:40;7.60;;;3.53;;
50483;SDS011;36409;52.168;20.878;2023-07-20T03:19:15;7.87;;;3.60;;
50483;SDS011;36409;52.168;20.878;2023-07-20T03:21:50;6.50;;;2.80;;
50483;SDS011;36409;52.168;20.878;2023-07-20T03:24:23;7.17;;;3.20;;
50483;SDS011;36409;52.168;20.878;2023-07-20T03:26:56;6.20;;;3.30;;
50483;SDS011;36409;52.168;20.878;2023-07-20T03:29:32;9.63;;;3.40;;
50483;SDS011;36409;52.168;20.878;2023-07-20T03:32:07;6.47;;;3.03;;
50483;SDS011;36409;52.168;20.878;2023-07-20T03:34:42;11.70;;;3.20;;
50483;SDS011;36409;52.168;20.878;2023-07-20T03:37:16;8.17;;;3.70;;
50483;SDS011;36409;52.168;20.878;2023-07-20T03:39:53;6.47;;;3.10;;
50483;SDS011;36409;52.168;20.878;2023-07-20T03:42:26;5.87;;;3.22;;
50483;SDS011;36409;52.168;20.878;2023-07-20T03:44:59;7.10;;;3.17;;
50483;SDS011;36409;52.168;20.878;2023-07-20T03:47:33;5.33;;;3.17;;
50483;SDS011;36409;52.168;20.878;2023-07-20T03:50:07;8.50;;;3.63;;
50483;SDS011;36409;52.168;20.878;2023-07-20T03:52:43;7.27;;;3.50;;
50483;SDS011;36409;52.168;20.878;2023-07-20T03:55:19;6.43;;;3.70;;
50483;SDS011;36409;52.168;20.878;2023-07-20T03:57:51;9.60;;;3.63;;
50483;SDS011;36409;52.168;20.878;2023-07-20T04:00:25;8.43;;;3.90;;
50483;SDS011;36409;52.168;20.878;2023-07-20T04:02:58;7.10;;;3.50;;
50483;SDS011;36409;52.168;20.878;2023-07-20T04:05:36;5.30;;;3.03;;
50483;SDS011;36409;52.168;20.878;2023-07-20T04:08:09;9.57;;;4.13;;
50483;SDS011;36409;52.168;20.878;2023-07-20T04:10:44;7.50;;;3.90;;
50483;SDS011;36409;52.168;20.878;2023-07-20T04:13:18;7.65;;;3.95;;
50483;SDS011;36409;52.168;20.878;2023-07-20T04:15:51;6.30;;;3.70;;
50483;SDS011;36409;52.168;20.878;2023-07-20T04:18:24;6.58;;;3.70;;
50483;SDS011;36409;52.168;20.878;2023-07-20T04:20:58;7.47;;;3.33;;
50483;SDS011;36409;52.168;20.878;2023-07-20T04:23:33;6.23;;;3.87;;
50483;SDS011;36409;52.168;20.878;2023-07-20T04:26:11;7.10;;;4.03;;
50483;SDS011;36409;52.168;20.878;2023-07-20T04:28:44;9.50;;;3.50;;
50483;SDS011;36409;52.168;20.878;2023-07-20T04:31:27;6.73;;;3.63;;
50483;SDS011;36409;52.168;20.878;2023-07-20T04:34:05;6.40;;;3.77;;
50483;SDS011;36409;52.168;20.878;2023-07-20T04:36:40;6.63;;;3.80;;
50483;SDS011;36409;52.168;20.878;2023-07-20T04:39:12;6.37;;;3.70;;
50483;SDS011;36409;52.168;20.878;2023-07-20T04:42:03;8.27;;;3.83;;
50483;SDS011;36409;52.168;20.878;2023-07-20T04:44:36;6.60;;;3.50;;
50483;SDS011;36409;52.168;20.878;2023-07-20T04:47:11;7.50;;;4.20;;
50483;SDS011;36409;52.168;20.878;2023-07-20T04:49:49;9.13;;;4.10;;
50483;SDS011;36409;52.168;20.878;2023-07-20T04:52:25;9.87;;;4.57;;
50483;SDS011;36409;52.168;20.878;2023-07-20T04:55:10;9.00;;;4.27;;
50483;SDS011;36409;52.168;20.878;2023-07-20T04:57:43;6.50;;;4.40;;
50483;SDS011;36409;52.168;20.878;2023-07-20T05:00:18;7.33;;;4.17;;
50483;SDS011;36409;52.168;20.878;2023-07-20T05:02:52;8.03;;;4.00;;
50483;SDS011;36409;52.168;20.878;2023-07-20T05:05:27;6.93;;;4.17;;
50483;SDS011;36409;52.168;20.878;2023-07-20T05:08:02;9.03;;;4.77;;
50483;SDS011;36409;52.168;20.878;2023-07-20T05:10:37;9.30;;;4.70;;
50483;SDS011;36409;52.168;20.878;2023-07-20T05:13:12;7.92;;;4.30;;
50483;SDS011;36409;52.168;20.878;2023-07-20T05:15:47;11.30;;;4.97;;
50483;SDS011;36409;52.168;20.878;2023-07-20T05:18:24;10.10;;;4.73;;
50483;SDS011;36409;52.168;20.878;2023-07-20T05:20:57;10.80;;;5.00;;
50483;SDS011;36409;52.168;20.878;2023-07-20T05:23:30;11.30;;;5.10;;
50483;SDS011;36409;52.168;20.878;2023-07-20T05:26:04;10.57;;;4.53;;
50483;SDS011;36409;52.168;20.878;2023-07-20T05:28:36;6.90;;;4.40;;
50483;SDS011;36409;52.168;20.878;2023-07-20T05:31:09;8.07;;;4.90;;
50483;SDS011;36409;52.168;20.878;2023-07-20T05:33:43;9.40;;;4.33;;
50483;SDS011;36409;52.168;20.878;2023-07-20T05:36:16;9.03;;;4.70;;
50483;SDS011;36409;52.168;20.878;2023-07-20T05:38:52;7.60;;;3.93;;
50483;SDS011;36409;52.168;20.878;2023-07-20T05:41:25;8.80;;;4.53;;
50483;SDS011;36409;52.168;20.878;2023-07-20T05:43:57;7.17;;;4.30;;
50483;SDS011;36409;52.168;20.878;2023-07-20T05:46:32;8.47;;;4.50;;
50483;SDS011;36409;52.168;20.878;2023-07-20T05:49:25;11.27;;;4.63;;
50483;SDS011;36409;52.168;20.878;2023-07-20T05:51:58;8.13;;;4.80;;
50483;SDS011;36409;52.168;20.878;2023-07-20T05:57:03;17.30;;;4.70;;
50483;SDS011;36409;52.168;20.878;2023-07-20T05:59:36;9.40;;;4.27;;
50483;SDS011;36409;52.168;20.878;2023-07-20T06:02:10;8.00;;;4.22;;
50483;SDS011;36409;52.168;20.878;2023-07-20T06:04:44;8.47;;;4.73;;
50483;SDS011;36409;52.168;20.878;2023-07-20T06:07:19;9.50;;;4.60;;
50483;SDS011;36409;52.168;20.878;2023-07-20T06:09:57;7.03;;;4.40;;
50483;SDS011;36409;52.168;20.878;2023-07-20T06:12:32;11.23;;;4.83;;
50483;SDS011;36409;52.168;20.878;2023-07-20T06:15:23;9.43;;;4.63;;
50483;SDS011;36409;52.168;20.878;2023-07-20T06:18:02;8.83;;;4.87;;
50483;SDS011;36409;52.168;20.878;2023-07-20T06:20:38;9.40;;;4.30;;
50483;SDS011;36409;52.168;20.878;2023-07-20T06:23:10;9.10;;;5.57;;
50483;SDS011;36409;52.168;20.878;2023-07-20T06:25:43;9.07;;;5.00;;
50483;SDS011;36409;52.168;20.878;2023-07-20T06:28:15;17.77;;;6.07;;
50483;SDS011;36409;52.168;20.878;2023-07-20T06:30:48;12.10;;;5.67;;
50483;SDS011;36409;52.168;20.878;2023-07-20T06:33:21;10.30;;;5.00;;
50483;SDS011;36409;52.168;20.878;2023-07-20T06:35:54;8.40;;;4.70;;
50483;SDS011;36409;52.168;20.878;2023-07-20T06:38:30;9.60;;;4.53;;
50483;SDS011;36409;52.168;20.878;2023-07-20T06:43:39;8.00;;;4.67;;
50483;SDS011;36409;52.168;20.878;2023-07-20T06:46:14;8.00;;;4.90;;
50483;SDS011;36409;52.168;20.878;2023-07-20T06:48:47;9.83;;;4.73;;
50483;SDS011;36409;52.168;20.878;2023-07-20T06:51:22;9.37;;;4.07;;
50483;SDS011;36409;52.168;20.878;2023-07-20T06:53:55;13.90;;;4.40;;
50483;SDS011;36409;52.168;20.878;2023-07-20T06:56:27;8.40;;;4.63;;
50483;SDS011;36409;52.168;20.878;2023-07-20T06:59:02;7.57;;;4.37;;
50483;SDS011;36409;52.168;20.878;2023-07-20T07:01:37;7.00;;;3.73;;
50483;SDS011;36409;52.168;20.878;2023-07-20T07:04:10;7.27;;;4.17;;
50483;SDS011;36409;52.168;20.878;2023-07-20T07:06:42;7.57;;;4.80;;
50483;SDS011;36409;52.168;20.878;2023-07-20T07:09:15;7.60;;;4.57;;
50483;SDS011;36409;52.168;20.878;2023-07-20T07:11:50;8.47;;;4.70;;
50483;SDS011;36409;52.168;20.878;2023-07-20T07:14:23;9.50;;;4.23;;
50483;SDS011;36409;52.168;20.878;2023-07-20T07:16:56;10.03;;;4.93;;
50483;SDS011;36409;52.168;20.878;2023-07-20T07:19:33;8.80;;;4.80;;
50483;SDS011;36409;52.168;20.878;2023-07-20T07:22:07;8.27;;;4.47;;
50483;SDS011;36409;52.168;20.878;2023-07-20T07:24:46;12.00;;;4.67;;
50483;SDS011;36409;52.168;20.878;2023-07-20T07:27:18;10.40;;;5.07;;
50483;SDS011;36409;52.168;20.878;2023-07-20T07:29:51;8.75;;;5.33;;
50483;SDS011;36409;52.168;20.878;2023-07-20T07:32:26;9.57;;;4.70;;
50483;SDS011;36409;52.168;20.878;2023-07-20T07:35:02;7.20;;;4.70;;
50483;SDS011;36409;52.168;20.878;2023-07-20T07:37:35;9.93;;;4.63;;
50483;SDS011;36409;52.168;20.878;2023-07-20T07:40:27;8.37;;;4.93;;
50483;SDS011;36409;52.168;20.878;2023-07-20T07:43:00;8.90;;;5.00;;
50483;SDS011;36409;52.168;20.878;2023-07-20T07:45:35;7.97;;;5.03;;
50483;SDS011;36409;52.168;20.878;2023-07-20T07:48:07;10.43;;;5.13;;
50483;SDS011;36409;52.168;20.878;2023-07-20T07:50:42;10.47;;;4.60;;
50483;SDS011;36409;52.168;20.878;2023-07-20T07:53:14;7.47;;;4.57;;
50483;SDS011;36409;52.168;20.878;2023-07-20T07:55:48;10.07;;;5.17;;
50483;SDS011;36409;52.168;20.878;2023-07-20T07:58:20;10.43;;;4.87;;
50483;SDS011;36409;52.168;20.878;2023-07-20T08:00:53;10.10;;;4.93;;
50483;SDS011;36409;52.168;20.878;2023-07-20T08:03:25;8.67;;;4.67;;
50483;SDS011;36409;52.168;20.878;2023-07-20T08:05:58;8.80;;;5.10;;
50483;SDS011;36409;52.168;20.878;2023-07-20T08:08:33;11.67;;;4.97;;
50483;SDS011;36409;52.168;20.878;2023-07-20T08:11:09;9.20;;;4.63;;
50483;SDS011;36409;52.168;20.878;2023-07-20T08:13:44;12.07;;;4.93;;
50483;SDS011;36409;52.168;20.878;2023-07-20T08:16:16;7.90;;;4.70;;
50483;SDS011;36409;52.168;20.878;2023-07-20T08:18:49;10.17;;;4.80;;
50483;SDS011;36409;52.168;20.878;2023-07-20T08:21:22;12.27;;;4.80;;
50483;SDS011;36409;52.168;20.878;2023-07-20T08:23:54;6.93;;;4.50;;
50483;SDS011;36409;52.168;20.878;2023-07-20T08:26:27;9.73;;;4.90;;
50483;SDS011;36409;52.168;20.878;2023-07-20T08:28:59;8.77;;;4.53;;
50483;SDS011;36409;52.168;20.878;2023-07-20T08:31:34;7.87;;;4.17;;
50483;SDS011;36409;52.168;20.878;2023-07-20T08:34:07;6.45;;;3.95;;
50483;SDS011;36409;52.168;20.878;2023-07-20T08:36:58;6.43;;;3.97;;
50483;SDS011;36409;52.168;20.878;2023-07-20T08:39:31;6.53;;;4.00;;
50483;SDS011;36409;52.168;20.878;2023-07-20T08:42:05;10.40;;;4.10;;
50483;SDS011;36409;52.168;20.878;2023-07-20T08:44:38;6.00;;;3.70;;
50483;SDS011;36409;52.168;20.878;2023-07-20T08:47:12;8.97;;;4.13;;
50483;SDS011;36409;52.168;20.878;2023-07-20T08:49:49;6.27;;;3.60;;
50483;SDS011;36409;52.168;20.878;2023-07-20T08:52:23;6.30;;;3.90;;
50483;SDS011;36409;52.168;20.878;2023-07-20T08:55:04;8.77;;;4.27;;
50483;SDS011;36409;52.168;20.878;2023-07-20T08:57:37;6.78;;;3.45;;
50483;SDS011;36409;52.168;20.878;2023-07-20T09:00:13;4.90;;;2.87;;
50483;SDS011;36409;52.168;20.878;2023-07-20T09:02:48;5.67;;;2.97;;
50483;SDS011;36409;52.168;20.878;2023-07-20T09:05:22;6.33;;;2.77;;
50483;SDS011;36409;52.168;20.878;2023-07-20T09:07:56;7.13;;;3.77;;
50483;SDS011;36409;52.168;20.878;2023-07-20T09:13:01;6.27;;;3.00;;
50483;SDS011;36409;52.168;20.878;2023-07-20T09:15:36;5.27;;;2.87;;
50483;SDS011;36409;52.168;20.878;2023-07-20T09:18:08;5.33;;;2.77;;
50483;SDS011;36409;52.168;20.878;2023-07-20T09:20:41;5.07;;;2.87;;
50483;SDS011;36409;52.168;20.878;2023-07-20T09:23:14;5.33;;;3.25;;
50483;SDS011;36409;52.168;20.878;2023-07-20T09:25:48;6.13;;;3.00;;
50483;SDS011;36409;52.168;20.878;2023-07-20T09:28:21;6.58;;;3.10;;
50483;SDS011;36409;52.168;20.878;2023-07-20T09:30:54;5.43;;;2.67;;
50483;SDS011;36409;52.168;20.878;2023-07-20T09:33:27;6.97;;;3.03;;
50483;SDS011;36409;52.168;20.878;2023-07-20T09:36:03;5.00;;;2.83;;
50483;SDS011;36409;52.168;20.878;2023-07-20T09:39:00;5.07;;;2.37;;
50483;SDS011;36409;52.168;20.878;2023-07-20T09:41:40;6.93;;;2.47;;
50483;SDS011;36409;52.168;20.878;2023-07-20T09:44:15;5.07;;;2.93;;
50483;SDS011;36409;52.168;20.878;2023-07-20T09:46:58;3.63;;;2.20;;
50483;SDS011;36409;52.168;20.878;2023-07-20T09:49:32;6.23;;;2.47;;
50483;SDS011;36409;52.168;20.878;2023-07-20T09:52:12;5.60;;;2.77;;
50483;SDS011;36409;52.168;20.878;2023-07-20T09:54:53;4.07;;;2.10;;
50483;SDS011;36409;52.168;20.878;2023-07-20T09:57:26;4.72;;;2.33;;
50483;SDS011;36409;52.168;20.878;2023-07-20T10:02:41;3.90;;;1.90;;
50483;SDS011;36409;52.168;20.878;2023-07-20T10:05:14;4.07;;;2.20;;
50483;SDS011;36409;52.168;20.878;2023-07-20T10:07:48;5.37;;;2.22;;
50483;SDS011;36409;52.168;20.878;2023-07-20T10:10:41;5.17;;;2.20;;
50483;SDS011;36409;52.168;20.878;2023-07-20T10:13:17;5.50;;;2.53;;
50483;SDS011;36409;52.168;20.878;2023-07-20T10:15:53;5.40;;;2.20;;
50483;SDS011;36409;52.168;20.878;2023-07-20T10:18:34;4.70;;;2.40;;
50483;SDS011;36409;52.168;20.878;2023-07-20T10:21:20;13.33;;;3.00;;
50483;SDS011;36409;52.168;20.878;2023-07-20T10:23:57;4.80;;;2.23;;
50483;SDS011;36409;52.168;20.878;2023-07-20T10:26:30;6.40;;;2.95;;
50483;SDS011;36409;52.168;20.878;2023-07-20T10:29:06;5.40;;;2.60;;
50483;SDS011;36409;52.168;20.878;2023-07-20T10:31:47;7.17;;;2.63;;
50483;SDS011;36409;52.168;20.878;2023-07-20T10:34:24;4.47;;;2.20;;
50483;SDS011;36409;52.168;20.878;2023-07-20T10:36:59;7.00;;;2.53;;
50483;SDS011;36409;52.168;20.878;2023-07-20T10:39:32;4.17;;;2.60;;
50483;SDS011;36409;52.168;20.878;2023-07-20T10:42:07;5.43;;;2.30;;
50483;SDS011;36409;52.168;20.878;2023-07-20T10:44:44;4.10;;;2.00;;
50483;SDS011;36409;52.168;20.878;2023-07-20T10:47:20;5.27;;;2.40;;
50483;SDS011;36409;52.168;20.878;2023-07-20T10:49:59;4.07;;;2.30;;
50483;SDS011;36409;52.168;20.878;2023-07-20T10:52:37;4.37;;;2.10;;
50483;SDS011;36409;52.168;20.878;2023-07-20T10:55:15;5.33;;;2.30;;
50483;SDS011;36409;52.168;20.878;2023-07-20T11:19:19;4.87;;;2.17;;
50483;SDS011;36409;52.168;20.878;2023-07-20T11:21:54;4.43;;;2.57;;
50483;SDS011;36409;52.168;20.878;2023-07-20T11:24:31;3.80;;;2.13;;
50483;SDS011;36409;52.168;20.878;2023-07-20T11:27:01;3.90;;;2.33;;
50483;SDS011;36409;52.168;20.878;2023-07-20T11:29:31;4.83;;;2.47;;
50483;SDS011;36409;52.168;20.878;2023-07-20T11:32:01;4.43;;;2.13;;
50483;SDS011;36409;52.168;20.878;2023-07-20T11:34:34;3.43;;;1.93;;
50483;SDS011;36409;52.168;20.878;2023-07-20T11:37:07;3.95;;;1.90;;
50483;SDS011;36409;52.168;20.878;2023-07-20T11:39:39;3.83;;;1.83;;
50483;SDS011;36409;52.168;20.878;2023-07-20T11:42:08;5.60;;;2.27;;
50483;SDS011;36409;52.168;20.878;2023-07-20T11:44:37;4.17;;;1.90;;
50483;SDS011;36409;52.168;20.878;2023-07-20T11:47:07;4.53;;;1.87;;
50483;SDS011;36409;52.168;20.878;2023-07-20T11:49:38;3.47;;;1.83;;
50483;SDS011;36409;52.168;20.878;2023-07-20T11:52:09;5.77;;;1.93;;
50483;SDS011;36409;52.168;20.878;2023-07-20T11:54:55;3.87;;;2.00;;
50483;SDS011;36409;52.168;20.878;2023-07-20T11:57:25;8.00;;;2.17;;
50483;SDS011;36409;52.168;20.878;2023-07-20T11:59:54;3.57;;;1.73;;
50483;SDS011;36409;52.168;20.878;2023-07-20T12:02:27;2.80;;;1.60;;
50483;SDS011;36409;52.168;20.878;2023-07-20T12:04:57;3.85;;;1.95;;
50483;SDS011;36409;52.168;20.878;2023-07-20T12:07:27;4.20;;;2.00;;
50483;SDS011;36409;52.168;20.878;2023-07-20T12:10:06;4.77;;;1.97;;
50483;SDS011;36409;52.168;20.878;2023-07-20T12:12:38;3.50;;;1.80;;
50483;SDS011;36409;52.168;20.878;2023-07-20T12:15:14;3.37;;;1.63;;
50483;SDS011;36409;52.168;20.878;2023-07-20T12:17:44;4.07;;;2.00;;
50483;SDS011;36409;52.168;20.878;2023-07-20T12:20:24;3.00;;;1.60;;
50483;SDS011;36409;52.168;20.878;2023-07-20T12:22:56;3.83;;;1.97;;
50483;SDS011;36409;52.168;20.878;2023-07-20T12:25:36;3.70;;;1.97;;
50483;SDS011;36409;52.168;20.878;2023-07-20T12:28:08;7.27;;;2.40;;
50483;SDS011;36409;52.168;20.878;2023-07-20T12:30:38;3.53;;;2.00;;
50483;SDS011;36409;52.168;20.878;2023-07-20T12:33:07;4.50;;;2.03;;
50483;SDS011;36409;52.168;20.878;2023-07-20T12:35:37;3.53;;;2.00;;
50483;SDS011;36409;52.168;20.878;2023-07-20T12:38:06;3.83;;;2.10;;
50483;SDS011;36409;52.168;20.878;2023-07-20T12:40:38;3.53;;;1.97;;
50483;SDS011;36409;52.168;20.878;2023-07-20T12:43:07;4.33;;;2.10;;
50483;SDS011;36409;52.168;20.878;2023-07-20T12:45:39;4.27;;;1.90;;
50483;SDS011;36409;52.168;20.878;2023-07-20T12:48:08;4.70;;;2.30;;
50483;SDS011;36409;52.168;20.878;2023-07-20T12:50:38;4.43;;;2.20;;
50483;SDS011;36409;52.168;20.878;2023-07-20T12:53:07;6.83;;;2.40;;
50483;SDS011;36409;52.168;20.878;2023-07-20T12:55:37;6.07;;;2.20;;
50483;SDS011;36409;52.168;20.878;2023-07-20T12:58:07;6.23;;;2.00;;
50483;SDS011;36409;52.168;20.878;2023-07-20T13:00:36;3.63;;;1.73;;
50483;SDS011;36409;52.168;20.878;2023-07-20T13:03:08;4.27;;;2.30;;
50483;SDS011;36409;52.168;20.878;2023-07-20T13:05:59;3.20;;;1.90;;
50483;SDS011;36409;52.168;20.878;2023-07-20T13:08:31;4.27;;;1.80;;
50483;SDS011;36409;52.168;20.878;2023-07-20T13:11:00;4.73;;;2.10;;
50483;SDS011;36409;52.168;20.878;2023-07-20T13:13:29;3.97;;;2.23;;
50483;SDS011;36409;52.168;20.878;2023-07-20T13:15:58;4.63;;;2.10;;
50483;SDS011;36409;52.168;20.878;2023-07-20T13:18:27;3.13;;;1.77;;
50483;SDS011;36409;52.168;20.878;2023-07-20T13:21:05;4.40;;;2.17;;
50483;SDS011;36409;52.168;20.878;2023-07-20T13:23:40;7.07;;;2.13;;
50483;SDS011;36409;52.168;20.878;2023-07-20T13:26:10;3.47;;;1.90;;
50483;SDS011;36409;52.168;20.878;2023-07-20T13:28:40;3.27;;;1.97;;
50483;SDS011;36409;52.168;20.878;2023-07-20T13:31:10;2.60;;;1.50;;
50483;SDS011;36409;52.168;20.878;2023-07-20T13:33:42;4.63;;;1.97;;
50483;SDS011;36409;52.168;20.878;2023-07-20T13:36:24;3.63;;;1.93;;
50483;SDS011;36409;52.168;20.878;2023-07-20T13:38:54;4.93;;;1.73;;
50483;SDS011;36409;52.168;20.878;2023-07-20T13:41:27;4.10;;;2.05;;
50483;SDS011;36409;52.168;20.878;2023-07-20T13:44:00;2.45;;;1.55;;
50483;SDS011;36409;52.168;20.878;2023-07-20T13:46:35;3.27;;;1.90;;
50483;SDS011;36409;52.168;20.878;2023-07-20T13:49:06;5.00;;;1.83;;
50483;SDS011;36409;52.168;20.878;2023-07-20T13:51:40;2.80;;;1.53;;
50483;SDS011;36409;52.168;20.878;2023-07-20T13:54:11;2.53;;;1.50;;
50483;SDS011;36409;52.168;20.878;2023-07-20T13:56:43;3.95;;;1.85;;
50483;SDS011;36409;52.168;20.878;2023-07-20T13:59:12;2.33;;;1.57;;
50483;SDS011;36409;52.168;20.878;2023-07-20T14:01:46;3.65;;;1.60;;
50483;SDS011;36409;52.168;20.878;2023-07-20T14:04:16;3.80;;;2.00;;
50483;SDS011;36409;52.168;20.878;2023-07-20T14:06:45;3.97;;;1.50;;
50483;SDS011;36409;52.168;20.878;2023-07-20T14:09:15;2.87;;;1.60;;
50483;SDS011;36409;52.168;20.878;2023-07-20T14:11:50;4.47;;;1.70;;
50483;SDS011;36409;52.168;20.878;2023-07-20T14:14:24;2.90;;;1.40;;
50483;SDS011;36409;52.168;20.878;2023-07-20T14:16:53;2.97;;;1.67;;
50483;SDS011;36409;52.168;20.878;2023-07-20T14:19:23;3.13;;;1.53;;
50483;SDS011;36409;52.168;20.878;2023-07-20T14:21:52;3.30;;;1.37;;
50483;SDS011;36409;52.168;20.878;2023-07-20T14:24:22;3.07;;;1.70;;
50483;SDS011;36409;52.168;20.878;2023-07-20T14:26:50;3.47;;;2.03;;
50483;SDS011;36409;52.168;20.878;2023-07-20T14:29:19;3.57;;;1.90;;
50483;SDS011;36409;52.168;20.878;2023-07-20T14:31:52;6.53;;;2.10;;
50483;SDS011;36409;52.168;20.878;2023-07-20T14:34:21;3.87;;;1.60;;
50483;SDS011;36409;52.168;20.878;2023-07-20T14:36:50;3.87;;;1.83;;
50483;SDS011;36409;52.168;20.878;2023-07-20T14:39:20;4.13;;;2.07;;
50483;SDS011;36409;52.168;20.878;2023-07-20T14:41:49;8.50;;;1.63;;
50483;SDS011;36409;52.168;20.878;2023-07-20T14:44:20;2.67;;;1.30;;
50483;SDS011;36409;52.168;20.878;2023-07-20T14:46:49;3.97;;;1.83;;
50483;SDS011;36409;52.168;20.878;2023-07-20T14:49:38;3.07;;;1.67;;
50483;SDS011;36409;52.168;20.878;2023-07-20T14:52:07;2.67;;;1.30;;
50483;SDS011;36409;52.168;20.878;2023-07-20T14:54:53;3.23;;;1.10;;
50483;SDS011;36409;52.168;20.878;2023-07-20T14:57:22;2.70;;;1.17;;
50483;SDS011;36409;52.168;20.878;2023-07-20T14:59:52;1.53;;;0.90;;
50483;SDS011;36409;52.168;20.878;2023-07-20T15:02:22;1.97;;;1.00;;
50483;SDS011;36409;52.168;20.878;2023-07-20T15:04:59;2.70;;;1.00;;
50483;SDS011;36409;52.168;20.878;2023-07-20T15:07:31;2.03;;;1.17;;
50483;SDS011;36409;52.168;20.878;2023-07-20T15:10:00;3.13;;;1.20;;
50483;SDS011;36409;52.168;20.878;2023-07-20T15:12:30;4.60;;;1.57;;
50483;SDS011;36409;52.168;20.878;2023-07-20T15:15:07;1.67;;;0.90;;
50483;SDS011;36409;52.168;20.878;2023-07-20T15:17:38;2.87;;;1.43;;
50483;SDS011;36409;52.168;20.878;2023-07-20T15:20:10;1.87;;;1.10;;
50483;SDS011;36409;52.168;20.878;2023-07-20T15:22:42;2.03;;;1.17;;
50483;SDS011;36409;52.168;20.878;2023-07-20T15:25:15;3.20;;;1.50;;
50483;SDS011;36409;52.168;20.878;2023-07-20T15:27:47;5.27;;;1.37;;
50483;SDS011;36409;52.168;20.878;2023-07-20T15:30:18;2.70;;;1.57;;
50483;SDS011;36409;52.168;20.878;2023-07-20T15:32:50;2.60;;;1.50;;
50483;SDS011;36409;52.168;20.878;2023-07-20T15:35:23;3.73;;;1.70;;
50483;SDS011;36409;52.168;20.878;2023-07-20T15:37:52;3.30;;;1.50;;
50483;SDS011;36409;52.168;20.878;2023-07-20T15:40:21;3.50;;;1.70;;
50483;SDS011;36409;52.168;20.878;2023-07-20T15:42:50;3.50;;;1.70;;
50483;SDS011;36409;52.168;20.878;2023-07-20T15:45:21;3.50;;;1.60;;
50483;SDS011;36409;52.168;20.878;2023-07-20T15:47:53;3.13;;;1.50;;
50483;SDS011;36409;52.168;20.878;2023-07-20T15:50:23;3.03;;;1.60;;
50483;SDS011;36409;52.168;20.878;2023-07-20T15:52:52;3.60;;;1.50;;
50483;SDS011;36409;52.168;20.878;2023-07-20T15:55:25;2.45;;;1.42;;